Time;durP1;ratioP1;P1;durP2;ratioP2;P2;SDS_P1;SDS_P2;PMS_P1;PMS_P2;Temp;Humidity;BMP_temperature;BMP_pressure;BME280_temperature;BME280_humidity;BME280_pressure;Samples;Min_cycle;Max_cycle;Signal;HPM_P1;HPM_P2
2022/09/05 00:00:34;;;;;;;15.70;4.27;;;;;;;19.42;59.28;101770.56;5145917;29;20486;-80
2022/09/05 00:03:40;;;;;;;14.00;4.17;;;;;;;19.17;60.61;101769.94;5149197;28;20110;-80
2022/09/05 00:06:14;;;;;;;18.27;3.90;;;;;;;18.97;61.02;101759.13;5138787;29;20047;-80
2022/09/05 00:08:55;;;;;;;17.27;5.18;;;;;;;19.20;60.02;101759.09;5148291;28;20039;-80
2022/09/05 00:11:37;;;;;;;23.70;4.20;;;;;;;19.03;61.07;101761.28;5148186;28;20496;-81
2022/09/05 00:14:45;;;;;;;22.47;4.90;;;;;;;19.17;60.08;101765.47;5147797;28;20533;-81
2022/09/05 00:17:53;;;;;;;16.87;4.63;;;;;;;19.36;58.69;101760.47;5137374;29;20114;-80
2022/09/05 00:20:38;;;;;;;17.40;4.03;;;;;;;18.79;61.73;101745.53;5147360;29;20057;-81
2022/09/05 00:23:25;;;;;;;18.50;4.53;;;;;;;18.95;60.85;101766.38;5148793;28;20043;-81
2022/09/05 00:26:18;;;;;;;11.47;3.60;;;;;;;18.82;61.43;101764.72;5147686;28;20603;-81
2022/09/05 00:29:02;;;;;;;16.23;3.33;;;;;;;18.85;61.22;101763.63;5146966;28;20043;-81
2022/09/05 00:31:58;;;;;;;18.92;3.92;;;;;;;18.95;61.24;101759.25;5148390;28;20045;-81
2022/09/05 00:34:51;;;;;;;13.20;3.93;;;;;;;18.74;61.87;101764.50;5148070;28;20407;-81
2022/09/05 00:37:34;;;;;;;15.80;4.43;;;;;;;18.47;63.07;101763.06;5147981;28;20031;-81
2022/09/05 00:40:43;;;;;;;12.87;4.03;;;;;;;18.65;62.12;101754.59;5146571;29;20028;-81
2022/09/05 00:43:28;;;;;;;12.07;3.77;;;;;;;18.80;61.71;101752.53;5146761;28;20031;-82
2022/09/05 00:46:12;;;;;;;10.63;3.93;;;;;;;18.41;63.75;101753.81;5148567;28;20034;-81
2022/09/05 00:49:06;;;;;;;13.20;4.10;;;;;;;18.41;63.21;101742.34;5147746;28;20148;-81
2022/09/05 00:51:54;;;;;;;9.20;4.80;;;;;;;18.40;63.81;101757.41;5146346;28;20438;-81
2022/09/05 00:54:50;;;;;;;12.20;3.63;;;;;;;18.68;61.81;101754.34;5147658;28;20035;-80
2022/09/05 00:57:40;;;;;;;13.67;4.53;;;;;;;18.54;63.16;101755.47;5146858;28;20023;-80
2022/09/05 01:00:15;;;;;;;9.10;4.70;;;;;;;18.72;62.35;101755.81;5147546;29;20042;-80
2022/09/05 01:03:08;;;;;;;10.87;4.73;;;;;;;18.76;61.46;101759.06;5147890;29;20038;-80
2022/09/05 01:06:11;;;;;;;11.57;4.10;;;;;;;18.70;61.61;101747.13;5167236;23;20054;-80
2022/09/05 01:08:48;;;;;;;10.80;4.57;;;;;;;18.47;62.96;101742.69;5147996;29;20116;-80
2022/09/05 01:11:46;;;;;;;10.80;4.30;;;;;;;18.53;62.68;101746.69;5147450;28;20385;-80
2022/09/05 01:14:29;;;;;;;7.40;4.13;;;;;;;18.31;64.71;101758.97;5148099;28;20042;-80
2022/09/05 01:17:34;;;;;;;6.60;4.00;;;;;;;18.44;63.61;101752.69;5148191;29;20042;-80
2022/09/05 01:20:19;;;;;;;11.05;4.43;;;;;;;18.59;62.49;101742.66;5147822;29;20508;-80
2022/09/05 01:22:53;;;;;;;9.77;4.03;;;;;;;18.22;65.70;101765.00;5147730;29;20419;-81
2022/09/05 01:25:43;;;;;;;9.63;4.05;;;;;;;18.34;64.28;101753.44;5147293;29;20027;-81
2022/09/05 01:28:35;;;;;;;7.37;4.10;;;;;;;18.36;64.26;101750.66;5145971;29;20553;-79
2022/09/05 01:31:29;;;;;;;13.13;4.30;;;;;;;18.40;63.68;101752.09;5147506;28;20039;-81
2022/09/05 01:34:03;;;;;;;10.00;4.20;;;;;;;18.16;65.75;101747.78;5148077;29;20076;-80
2022/09/05 01:37:09;;;;;;;9.02;5.03;;;;;;;18.27;63.86;101725.72;5147124;29;20046;-80
2022/09/05 01:39:50;;;;;;;15.13;5.83;;;;;;;18.21;65.54;101748.25;5147034;28;20041;-80
2022/09/05 01:42:52;;;;;;;9.13;4.23;;;;;;;18.41;63.89;101750.31;5146739;29;20059;-81
2022/09/05 01:45:57;;;;;;;11.13;4.87;;;;;;;18.25;65.14;101748.84;5147446;28;20051;-81
2022/09/05 01:48:51;;;;;;;21.45;5.20;;;;;;;18.24;65.11;101741.84;5147387;29;20039;-81
2022/09/05 01:51:35;;;;;;;23.50;6.38;;;;;;;17.97;66.75;101743.88;5147596;29;20437;-82
2022/09/05 01:54:36;;;;;;;26.73;7.15;;;;;;;18.12;65.78;101749.78;5146222;29;20545;-81
2022/09/05 01:57:33;;;;;;;37.43;7.87;;;;;;;18.10;66.12;101743.75;5146581;28;20497;-82
2022/09/05 02:00:12;;;;;;;38.87;7.07;;;;;;;18.13;66.15;101732.94;5147297;29;20062;-82
2022/09/05 02:02:59;;;;;;;38.50;7.47;;;;;;;18.31;64.89;101736.94;5146030;29;20418;-82
2022/09/05 02:05:50;;;;;;;31.83;8.63;;;;;;;17.88;65.78;101715.44;5145223;29;20078;-81
2022/09/05 02:08:54;;;;;;;39.63;7.53;;;;;;;18.26;65.17;101745.22;5146780;29;20086;-81
2022/09/05 02:11:37;;;;;;;41.17;9.77;;;;;;;18.16;65.88;101742.47;5146495;29;20043;-81
2022/09/05 02:14:27;;;;;;;31.63;8.17;;;;;;;18.23;65.73;101748.13;5147150;29;20035;-81
2022/09/05 02:17:21;;;;;;;29.80;7.57;;;;;;;17.94;66.36;101730.88;5147005;28;20110;-81
2022/09/05 02:20:06;;;;;;;28.87;6.97;;;;;;;18.01;67.24;101755.09;5147684;28;20027;-81
2022/09/05 02:22:43;;;;;;;30.50;8.07;;;;;;;17.70;69.29;101755.63;5147182;28;20291;-81
2022/09/05 02:25:24;;;;;;;31.27;7.97;;;;;;;17.72;68.84;101750.19;5147010;28;20035;-82
2022/09/05 02:28:12;;;;;;;22.60;5.93;;;;;;;17.84;67.52;101749.28;5144074;29;20058;-81
2022/09/05 02:30:51;;;;;;;24.97;7.00;;;;;;;17.78;67.56;101747.09;5145278;28;20442;-82
2022/09/05 02:33:30;;;;;;;21.20;8.57;;;;;;;17.87;67.50;101759.63;5146335;28;20031;-81
2022/09/05 02:36:23;;;;;;;25.73;7.23;;;;;;;17.96;66.95;101762.56;5146495;29;20032;-81
2022/09/05 02:39:04;;;;;;;21.60;7.87;;;;;;;17.72;68.88;101758.16;5148525;28;20134;-81
2022/09/05 02:41:49;;;;;;;21.23;6.33;;;;;;;17.60;69.15;101739.59;5152617;29;20027;-81
2022/09/05 02:44:33;;;;;;;29.17;7.70;;;;;;;17.69;69.03;101756.59;5149739;29;20039;-81
2022/09/05 02:47:29;;;;;;;22.35;6.65;;;;;;;17.52;69.56;101741.97;5149387;29;20023;-81
2022/09/05 02:50:06;;;;;;;23.70;7.40;;;;;;;17.71;68.63;101759.13;5150758;28;20119;-81
2022/09/05 02:52:42;;;;;;;19.77;7.17;;;;;;;17.49;70.50;101747.53;5149590;28;20451;-81
2022/09/05 02:55:56;;;;;;;27.27;8.33;;;;;;;17.60;68.72;101750.19;5149881;29;20561;-82
2022/09/05 02:58:41;;;;;;;23.77;7.60;;;;;;;17.35;69.74;101720.25;5148848;29;20043;-82
2022/09/05 03:01:27;;;;;;;23.33;7.40;;;;;;;17.52;70.47;101757.88;5148804;29;20027;-82
2022/09/05 03:04:17;;;;;;;22.27;6.87;;;;;;;17.59;69.65;101767.06;5149962;28;20477;-82
2022/09/05 03:07:12;;;;;;;22.97;7.20;;;;;;;17.36;71.58;101753.72;5150189;29;20050;-81
2022/09/05 03:10:08;;;;;;;30.73;8.43;;;;;;;17.67;68.93;101755.84;5148603;28;20122;-82
2022/09/05 03:13:08;;;;;;;28.60;8.73;;;;;;;17.38;70.96;101762.41;5149715;29;20103;-82
2022/09/05 03:16:13;;;;;;;27.20;7.03;;;;;;;17.53;70.22;101754.25;5150117;29;20028;-81
2022/09/05 03:18:59;;;;;;;28.80;8.20;;;;;;;17.43;70.57;101754.13;5149389;29;20043;-82
2022/09/05 03:21:51;;;;;;;23.67;7.10;;;;;;;17.32;71.60;101746.97;5149883;29;20075;-81
2022/09/05 03:24:41;;;;;;;16.80;6.33;;;;;;;17.26;71.91;101764.13;5149652;28;20698;-82
2022/09/05 03:27:49;;;;;;;17.87;8.10;;;;;;;17.29;71.71;101760.44;5149150;29;20379;-83
2022/09/05 03:30:26;;;;;;;26.33;7.17;;;;;;;16.95;74.04;101752.31;5150236;28;20034;-82
2022/09/05 03:33:35;;;;;;;16.17;6.73;;;;;;;17.20;72.63;101753.16;5150655;28;20114;-80
2022/09/05 03:36:19;;;;;;;27.20;6.80;;;;;;;17.20;72.46;101751.38;5150305;28;20114;-80
2022/09/05 03:39:11;;;;;;;20.67;8.40;;;;;;;17.19;72.35;101751.50;5149854;29;20133;-81
2022/09/05 03:42:17;;;;;;;21.30;7.97;;;;;;;17.26;71.63;101752.72;5148361;29;20072;-81
2022/09/05 03:44:59;;;;;;;;;;;;;;;17.51;68.95;101756.16;5149475;29;20078;-81
2022/09/05 03:47:55;;;;;;;14.67;6.83;;;;;;;17.16;71.10;101748.09;5149624;28;20284;-81
2022/09/05 03:50:53;;;;;;;11.07;6.60;;;;;;;17.07;70.24;101724.91;5152228;28;20030;-81
2022/09/05 03:53:31;;;;;;;13.30;5.97;;;;;;;16.99;73.16;101761.69;5169684;28;20039;-81
2022/09/05 03:56:37;;;;;;;15.13;7.00;;;;;;;17.04;72.94;101754.25;5160948;28;20046;-81
2022/09/05 03:59:27;;;;;;;14.23;5.60;;;;;;;17.05;72.59;101745.38;5149635;28;20054;-81
2022/09/05 04:02:05;;;;;;;13.47;6.13;;;;;;;16.96;73.16;101738.97;5148913;28;20062;-81
2022/09/05 04:04:39;;;;;;;13.47;5.63;;;;;;;16.99;73.04;101756.41;5148368;28;20051;-81
2022/09/05 04:07:18;;;;;;;;;;;;;;;17.34;69.76;101755.63;5149643;28;20046;-81
2022/09/05 04:10:08;;;;;;;12.93;5.97;;;;;;;17.20;71.09;101753.16;5148883;28;20017;-81
2022/09/05 04:12:42;;;;;;;12.70;6.27;;;;;;;16.93;73.26;101753.25;5148419;29;20509;-81
2022/09/05 04:15:27;;;;;;;12.35;7.18;;;;;;;17.08;71.90;101755.75;5148519;29;20060;-81
2022/09/05 04:18:09;;;;;;;11.33;5.97;;;;;;;16.90;73.37;101752.63;5149263;29;20549;-81
2022/09/05 04:20:54;;;;;;;9.53;6.00;;;;;;;16.87;74.22;101753.69;5148969;28;20106;-81
2022/09/05 04:23:44;;;;;;;;;;;;;;;17.21;70.16;101753.03;5148951;29;20055;-81
2022/09/05 04:26:23;;;;;;;12.53;6.43;;;;;;;16.84;73.90;101746.00;5147513;28;19915;-82
2022/09/05 04:29:16;;;;;;;8.60;6.47;;;;;;;16.78;73.92;101728.75;5148899;29;20035;-80
2022/09/05 04:32:18;;;;;;;9.43;5.77;;;;;;;16.86;74.34;101751.16;5148319;29;20031;-81
2022/09/05 04:35:18;;;;;;;14.37;7.00;;;;;;;16.70;77.15;101752.28;5148360;28;20037;-81
2022/09/05 04:37:53;;;;;;;9.80;6.10;;;;;;;16.69;76.18;101747.91;5148288;29;20046;-81
2022/09/05 04:40:29;;;;;;;10.60;6.93;;;;;;;16.67;76.28;101739.25;5148362;28;20027;-81
2022/09/05 04:43:08;;;;;;;9.63;6.47;;;;;;;16.57;77.33;101749.66;5146325;29;20102;-81
2022/09/05 04:45:57;;;;;;;12.50;7.67;;;;;;;16.68;76.50;101765.63;5146723;29;20030;-80
2022/09/05 04:48:41;;;;;;;9.30;6.63;;;;;;;16.69;75.25;101737.34;5147645;29;20650;-80
2022/09/05 04:51:54;;;;;;;8.77;6.70;;;;;;;16.47;75.71;101709.81;5148552;28;20023;-80
2022/09/05 04:54:59;;;;;;;16.60;8.03;;;;;;;16.88;73.99;101763.31;5147593;28;20035;-81
2022/09/05 04:58:09;;;;;;;13.23;7.20;;;;;;;16.80;74.83;101778.91;5142982;29;20398;-80
2022/09/05 05:00:51;;;;;;;10.53;8.20;;;;;;;16.36;78.41;101771.38;5145881;28;20027;-80
2022/09/05 05:03:26;;;;;;;10.10;7.10;;;;;;;16.48;77.22;101764.38;5169061;28;20129;-81
2022/09/05 05:06:08;;;;;;;12.87;7.63;;;;;;;16.19;77.96;101733.75;5167204;28;20998;-81
2022/09/05 05:08:45;;;;;;;12.50;7.17;;;;;;;16.54;77.13;101776.31;5167421;28;20492;-80
2022/09/05 05:11:25;;;;;;;14.20;7.47;;;;;;;16.50;76.53;101770.41;5166456;28;20556;-81
2022/09/05 05:14:12;;;;;;;8.27;6.40;;;;;;;16.67;75.48;101779.78;5166612;28;20490;-81
2022/09/05 05:17:08;;;;;;;10.53;6.43;;;;;;;16.69;75.44;101783.16;5167245;28;20026;-81
2022/09/05 05:19:44;;;;;;;12.53;6.27;;;;;;;16.55;76.77;101783.28;5166924;28;20031;-81
2022/09/05 05:22:17;;;;;;;13.63;6.07;;;;;;;16.72;75.53;101786.56;5167593;28;20486;-82
2022/09/05 05:24:53;;;;;;;11.10;6.23;;;;;;;16.36;78.58;101784.59;5167044;28;20054;-81
2022/09/05 05:27:33;;;;;;;13.43;7.00;;;;;;;16.46;77.13;101776.84;5166511;28;20125;-81
2022/09/05 05:30:07;;;;;;;11.50;6.77;;;;;;;16.52;76.80;101780.88;5167473;28;20038;-81
2022/09/05 05:32:39;;;;;;;11.60;7.75;;;;;;;16.65;76.23;101789.63;5167866;28;20110;-81
2022/09/05 05:35:21;;;;;;;12.47;6.37;;;;;;;16.63;75.98;101778.31;5167409;28;20037;-81
2022/09/05 05:37:56;;;;;;;10.33;6.77;;;;;;;16.56;76.77;101779.69;5168141;28;20751;-81
2022/09/05 05:40:31;;;;;;;15.00;7.60;;;;;;;16.53;77.37;101774.63;5166719;28;20117;-81
2022/09/05 05:43:14;;;;;;;12.87;7.03;;;;;;;16.60;78.21;101783.81;5165919;28;20034;-81
2022/09/05 05:45:55;;;;;;;13.93;6.90;;;;;;;16.61;77.56;101780.22;5166464;28;20066;-81
2022/09/05 05:48:35;;;;;;;14.57;7.70;;;;;;;16.53;78.62;101774.63;5166904;28;20478;-80
2022/09/05 05:51:41;;;;;;;11.00;6.77;;;;;;;16.68;77.25;101788.56;5166860;28;20035;-81
2022/09/05 05:54:48;;;;;;;14.30;7.85;;;;;;;16.55;78.89;101789.44;5166961;28;20129;-81
2022/09/05 05:57:35;;;;;;;21.90;10.00;;;;;;;16.73;77.15;101791.72;5161751;28;20046;-81
2022/09/05 06:00:17;;;;;;;18.13;9.40;;;;;;;16.69;78.08;101793.75;5164289;28;20045;-81
2022/09/05 06:02:55;;;;;;;16.93;8.10;;;;;;;16.81;78.24;101793.81;5166984;28;20034;-82
2022/09/05 06:05:49;;;;;;;15.03;8.97;;;;;;;16.85;76.81;101792.66;5166169;28;20082;-82
2022/09/05 06:08:42;;;;;;;17.13;8.30;;;;;;;16.92;76.03;101803.63;5164176;28;20039;-80
2022/09/05 06:12:05;;;;;;;16.37;8.57;;;;;;;16.98;75.06;101797.91;5163966;28;20057;-82
2022/09/05 06:15:06;;;;;;;19.67;9.10;;;;;;;17.11;74.63;101803.19;5166412;28;20038;-78
2022/09/05 06:18:09;;;;;;;12.63;9.43;;;;;;;17.14;74.66;101804.78;5168828;28;20034;-79
2022/09/05 06:21:07;;;;;;;17.40;8.43;;;;;;;17.14;75.90;101802.94;5168659;28;20046;-80
2022/09/05 06:24:17;;;;;;;12.63;8.80;;;;;;;17.27;74.37;101810.00;5167741;28;20054;-80
2022/09/05 06:27:17;;;;;;;17.40;8.97;;;;;;;17.26;74.28;101806.50;5168116;28;20101;-80
2022/09/05 06:29:55;;;;;;;11.50;8.20;;;;;;;17.38;73.01;101815.38;5169507;28;20050;-79
2022/09/05 06:32:57;;;;;;;12.87;8.50;;;;;;;17.48;72.05;101814.66;5169188;28;20046;-78
2022/09/05 06:35:51;;;;;;;10.50;8.90;;;;;;;17.56;71.41;101801.69;5169549;28;20038;-80
2022/09/05 06:38:41;;;;;;;13.13;7.63;;;;;;;17.65;70.76;101808.97;5156089;28;20038;-76
2022/09/05 06:41:27;;;;;;;14.97;7.63;;;;;;;17.80;70.41;101813.22;5182115;28;20031;-87
2022/09/05 06:44:21;;;;;;;16.50;7.50;;;;;;;17.89;70.04;101815.19;5168737;28;20043;-83
2022/09/05 06:46:55;;;;;;;12.23;8.10;;;;;;;18.00;69.60;101809.91;5168878;28;20039;-82
2022/09/05 06:49:35;;;;;;;14.73;7.47;;;;;;;18.09;68.96;101811.00;5163981;28;20057;-84
2022/09/05 06:52:28;;;;;;;12.33;6.97;;;;;;;18.18;68.13;101806.81;5168016;28;20394;-81
2022/09/05 06:55:20;;;;;;;12.00;7.43;;;;;;;18.17;68.47;101791.88;5167127;28;20041;-80
2022/09/05 06:58:10;;;;;;;10.13;6.90;;;;;;;18.48;66.85;101813.34;5167757;28;20058;-80
2022/09/05 07:01:03;;;;;;;14.80;6.33;;;;;;;18.59;65.75;101801.88;5164422;28;20485;-80
2022/09/05 07:03:47;;;;;;;9.07;6.40;;;;;;;18.68;65.29;101807.41;5166579;28;20371;-81
2022/09/05 07:06:52;;;;;;;15.17;6.07;;;;;;;18.73;65.16;101797.28;5164378;28;20054;-82
2022/09/05 07:09:47;;;;;;;8.37;5.70;;;;;;;18.96;64.77;101808.72;5157181;28;20051;-82
2022/09/05 07:12:26;;;;;;;6.00;4.90;;;;;;;19.12;62.63;101822.56;5136341;28;20031;-84
2022/09/05 07:15:04;;;;;;;14.13;5.70;;;;;;;19.27;62.76;101821.31;5168214;28;20195;-86
2022/09/05 07:17:39;;;;;;;10.13;5.20;;;;;;;19.49;61.84;101827.53;5162863;28;20031;-83
2022/09/05 07:20:33;;;;;;;14.02;5.60;;;;;;;19.49;62.61;101822.22;5167802;28;20265;-82
2022/09/05 07:23:07;;;;;;;9.05;5.22;;;;;;;19.74;60.69;101819.34;5178101;28;20035;-80
2022/09/05 07:25:43;;;;;;;7.17;4.73;;;;;;;20.07;59.37;101813.00;5165095;28;20042;-83
2022/09/05 07:28:18;;;;;;;9.90;5.13;;;;;;;20.15;59.08;101812.34;5164001;28;20049;-81
2022/09/05 07:31:01;;;;;;;9.13;4.83;;;;;;;20.30;58.41;101823.47;5168608;28;20685;-83
2022/09/05 07:33:33;;;;;;;11.87;4.77;;;;;;;20.45;57.12;101817.81;5170965;28;20023;-82
2022/09/05 07:36:15;;;;;;;8.50;4.10;;;;;;;20.46;57.07;101824.78;5168269;28;20027;-83
2022/09/05 07:38:54;;;;;;;6.57;4.63;;;;;;;21.01;55.46;101828.94;5163324;28;20077;-86
2022/09/05 07:41:33;;;;;;;5.00;3.47;;;;;;;20.87;55.66;101821.28;5168696;28;20482;-83
2022/09/05 07:44:14;;;;;;;9.17;3.50;;;;;;;20.98;54.91;101839.84;5165171;28;20053;-77
2022/09/05 07:46:49;;;;;;;5.13;3.03;;;;;;;21.00;54.44;101827.22;5166277;28;20035;-77
2022/09/05 07:49:26;;;;;;;5.43;3.33;;;;;;;21.18;55.83;101823.91;5165113;28;20031;-76
2022/09/05 07:52:03;;;;;;;12.57;3.10;;;;;;;21.30;53.47;101829.09;5168375;28;20027;-76
2022/09/05 07:54:40;;;;;;;10.43;3.87;;;;;;;21.46;53.44;101825.88;5166030;28;20042;-78
2022/09/05 07:57:22;;;;;;;12.77;2.77;;;;;;;21.70;53.88;101833.44;5166326;28;20881;-76
2022/09/05 08:00:06;;;;;;;4.83;2.80;;;;;;;21.99;53.69;101842.41;5163343;28;20401;-80
2022/09/05 08:02:47;;;;;;;6.80;3.25;;;;;;;22.10;52.05;101831.56;5165194;28;20023;-80
2022/09/05 08:05:20;;;;;;;8.47;2.53;;;;;;;22.35;50.89;101836.41;5164833;28;20049;-80
2022/09/05 08:07:56;;;;;;;6.97;2.40;;;;;;;22.41;51.10;101840.31;5166195;28;20723;-80
2022/09/05 08:10:35;;;;;;;10.90;3.10;;;;;;;22.66;50.49;101836.16;5165822;28;20536;-80
2022/09/05 08:13:16;;;;;;;5.97;2.60;;;;;;;22.63;50.89;101828.44;5169104;28;20022;-80
2022/09/05 08:15:52;;;;;;;10.80;2.88;;;;;;;23.02;50.93;101830.03;5169161;28;20093;-79
2022/09/05 08:18:39;;;;;;;4.30;2.33;;;;;;;23.10;49.70;101829.28;5170004;28;20030;-75
2022/09/05 08:21:20;;;;;;;6.40;2.28;;;;;;;23.18;50.91;101813.34;5169493;28;20650;-80
2022/09/05 08:24:10;;;;;;;5.97;2.40;;;;;;;23.45;51.06;101837.50;5165414;28;20850;-78
2022/09/05 08:26:55;;;;;;;4.88;1.90;;;;;;;23.68;49.36;101829.00;5169066;28;20086;-76
2022/09/05 08:29:35;;;;;;;4.28;2.13;;;;;;;23.60;48.56;101834.28;5162864;28;20031;-77
2022/09/05 08:32:19;;;;;;;8.80;2.13;;;;;;;23.76;48.35;101830.88;5168028;28;20038;-76
2022/09/05 08:35:24;;;;;;;58.15;7.90;;;;;;;24.09;48.79;101836.44;5167774;28;20464;-76
2022/09/05 08:37:56;;;;;;;12.43;2.35;;;;;;;24.27;46.31;101832.91;5162313;28;20584;-75
2022/09/05 08:40:40;;;;;;;7.82;2.20;;;;;;;23.96;46.49;101838.72;5172997;28;20031;-77
2022/09/05 08:43:28;;;;;;;5.53;2.28;;;;;;;24.33;46.57;101839.47;5168147;28;20030;-76
2022/09/05 08:45:59;;;;;;;5.13;2.17;;;;;;;24.15;46.39;101843.88;5167786;28;20035;-79
2022/09/05 08:48:58;;;;;;;4.07;2.10;;;;;;;24.57;46.32;101840.56;5163653;28;20034;-77
2022/09/05 08:51:38;;;;;;;10.05;2.20;;;;;;;24.63;45.43;101835.41;5160465;28;20041;-77
2022/09/05 08:54:18;;;;;;;7.18;2.20;;;;;;;24.64;44.46;101831.75;5161227;28;20110;-78
2022/09/05 08:56:59;;;;;;;7.30;1.92;;;;;;;24.89;44.77;101828.25;5165587;28;20446;-78
2022/09/05 08:59:36;;;;;;;7.47;2.05;;;;;;;24.72;44.13;101827.38;5169567;28;20233;-78
2022/09/05 09:02:44;;;;;;;5.88;2.10;;;;;;;25.11;44.38;101818.81;5167779;28;20441;-78
2022/09/05 09:05:56;;;;;;;11.40;2.10;;;;;;;25.35;44.02;101825.19;5184846;28;20996;-77
2022/09/05 09:08:55;;;;;;;4.90;2.00;;;;;;;25.54;44.05;101820.50;5163900;28;20046;-77
2022/09/05 09:11:52;;;;;;;5.22;2.10;;;;;;;25.42;43.17;101827.19;5149774;28;20034;-76
2022/09/05 09:14:48;;;;;;;6.32;2.10;;;;;;;25.35;43.13;101811.78;5167185;28;20027;-76
2022/09/05 09:17:52;;;;;;;4.03;1.85;;;;;;;25.68;42.92;101813.66;5152557;28;20466;-78
2022/09/05 09:20:46;;;;;;;9.27;2.15;;;;;;;25.85;42.48;101816.31;5155757;28;20035;-75
2022/09/05 09:23:32;;;;;;;;;;;;;;;25.80;43.56;101811.44;5159750;28;20035;-76
2022/09/05 09:26:16;;;;;;;10.95;2.13;;;;;;;25.99;43.56;101812.06;5166287;28;20447;-77
2022/09/05 09:29:05;;;;;;;7.88;2.72;;;;;;;25.88;42.29;101807.91;5162735;28;20362;-79
2022/09/05 09:32:01;;;;;;;9.48;2.35;;;;;;;26.33;41.02;101802.91;5163613;28;20152;-76
2022/09/05 09:34:45;;;;;;;7.57;2.42;;;;;;;26.61;40.16;101809.69;5167007;28;20030;-79
2022/09/05 09:37:53;;;;;;;6.72;2.15;;;;;;;26.70;40.19;101807.81;5148027;28;20104;-78
2022/09/05 09:40:29;;;;;;;9.48;1.88;;;;;;;26.72;37.33;101805.78;5166608;28;20089;-76
2022/09/05 09:43:31;;;;;;;7.45;1.70;;;;;;;26.90;38.07;101810.84;5167726;28;20486;-76
2022/09/05 09:46:20;;;;;;;4.75;1.80;;;;;;;26.71;38.18;101809.47;5165990;28;20129;-76
2022/09/05 09:49:19;;;;;;;4.18;1.83;;;;;;;26.81;37.69;101802.00;5174676;28;20113;-76
2022/09/05 09:51:59;;;;;;;5.07;2.10;;;;;;;27.05;37.50;101796.69;5169429;28;20030;-76
2022/09/05 09:54:55;;;;;;;8.05;1.73;;;;;;;27.04;36.90;101797.69;5170718;28;20039;-76
2022/09/05 09:57:58;;;;;;;5.68;1.40;;;;;;;27.24;36.83;101795.38;5154322;28;20560;-76
2022/09/05 10:00:56;;;;;;;3.22;1.40;;;;;;;27.40;36.54;101799.75;5171611;28;20038;-76
2022/09/05 10:03:53;;;;;;;10.18;1.70;;;;;;;27.58;36.94;101781.63;5163973;28;20505;-77
2022/09/05 10:07:00;;;;;;;5.35;1.42;;;;;;;27.52;36.23;101784.03;5170626;28;20409;-76
2022/09/05 10:10:12;;;;;;;9.25;1.50;;;;;;;27.69;36.29;101783.84;5174603;28;20038;-76
2022/09/05 10:13:04;;;;;;;6.03;1.55;;;;;;;27.63;34.42;101784.59;5149679;28;20046;-76
2022/09/05 10:16:14;;;;;;;4.88;1.38;;;;;;;27.61;34.76;101773.19;5170113;28;20022;-76
2022/09/05 10:19:11;;;;;;;4.68;1.38;;;;;;;27.53;35.05;101769.53;5166402;28;20027;-76
2022/09/05 10:22:07;;;;;;;6.72;1.52;;;;;;;27.84;35.72;101766.91;5170000;28;20026;-76
2022/09/05 10:24:44;;;;;;;2.90;1.20;;;;;;;27.95;33.91;101782.59;5170107;28;20130;-77
2022/09/05 10:27:45;;;;;;;2.13;1.33;;;;;;;28.30;33.72;101773.09;5152202;28;20548;-76
2022/09/05 10:30:25;;;;;;;3.97;1.23;;;;;;;28.38;33.23;101764.94;5166136;28;20049;-78
2022/09/05 10:33:21;;;;;;;3.75;1.50;;;;;;;28.58;33.25;101775.09;5169946;28;20026;-77
2022/09/05 10:36:00;;;;;;;3.75;1.02;;;;;;;29.07;32.59;101767.31;5167879;28;20067;-76
2022/09/05 10:38:44;;;;;;;4.65;1.48;;;;;;;29.57;32.27;101758.31;5168993;28;20031;-78
2022/09/05 10:41:18;;;;;;;;;;;;;;;29.74;34.56;101755.34;5160449;28;20059;-86
2022/09/05 10:44:03;;;;;;;;;;;;;;;30.04;33.45;101765.91;5158776;28;20001;-78
2022/09/05 10:46:53;;;;;;;3.90;1.30;;;;;;;30.25;31.31;101753.34;5159521;28;20012;-78
2022/09/05 10:49:33;;;;;;;3.30;1.13;;;;;;;30.30;31.28;101751.66;5156380;28;20023;-84
2022/09/05 10:52:34;;;;;;;4.57;1.40;;;;;;;30.63;30.87;101731.16;5161901;28;21048;-82
2022/09/05 10:55:16;;;;;;;6.22;1.48;;;;;;;30.72;28.80;101755.31;5161075;28;20753;-82
2022/09/05 10:57:56;;;;;;;10.35;1.40;;;;;;;30.87;29.50;101756.00;5158527;28;20030;-82
2022/09/05 11:00:46;;;;;;;6.07;1.33;;;;;;;31.05;29.92;101753.69;5159547;28;20019;-77
2022/09/05 11:03:24;;;;;;;4.88;1.60;;;;;;;30.92;28.57;101752.66;5162615;28;20034;-81
2022/09/05 11:06:04;;;;;;;2.58;1.40;;;;;;;31.12;29.24;101743.72;5158427;28;20062;-86
2022/09/05 11:08:50;;;;;;;4.80;1.13;;;;;;;30.82;28.62;101736.84;5155583;28;20077;-86
2022/09/05 11:11:25;;;;;;;2.83;1.10;;;;;;;30.98;28.44;101737.47;5157704;28;20042;-85
2022/09/05 11:13:59;;;;;;;2.45;1.35;;;;;;;31.18;27.68;101736.63;5159064;28;20034;-83
2022/09/05 11:16:42;;;;;;;2.85;1.20;;;;;;;31.18;28.66;101736.63;5158583;28;20030;-84
2022/09/05 11:19:20;;;;;;;8.88;1.42;;;;;;;30.94;28.10;101722.69;5156840;28;20030;-83
2022/09/05 11:22:01;;;;;;;5.03;1.02;;;;;;;30.98;28.63;101735.59;5157107;28;20117;-83
2022/09/05 11:24:36;;;;;;;3.47;1.85;;;;;;;30.98;28.05;101721.25;5164993;28;20034;-84
2022/09/05 11:27:25;;;;;;;2.83;0.98;;;;;;;31.35;28.71;101729.72;5166645;28;20457;-83
2022/09/05 11:30:12;;;;;;;6.15;1.50;;;;;;;31.06;28.32;101723.75;5156891;28;20043;-83
2022/09/05 11:33:11;;;;;;;3.75;1.52;;;;;;;31.07;28.62;101725.38;5164197;28;20031;-79
2022/09/05 11:35:59;;;;;;;5.15;1.70;;;;;;;31.07;28.83;101732.69;5166140;28;20765;-83
2022/09/05 11:38:36;;;;;;;1.67;0.98;;;;;;;31.29;27.60;101725.19;5160131;28;20544;-84
2022/09/05 11:41:14;;;;;;;4.47;1.40;;;;;;;31.32;27.78;101723.91;5165942;28;20114;-82
2022/09/05 11:44:11;;;;;;;6.47;1.33;;;;;;;31.08;27.93;101724.38;5166374;28;20673;-83
2022/09/05 11:47:06;;;;;;;3.85;1.42;;;;;;;31.37;28.33;101724.94;5167652;28;20058;-83
2022/09/05 11:50:12;;;;;;;5.40;0.98;;;;;;;31.27;29.05;101719.13;5164222;28;20149;-83
2022/09/05 11:53:32;;;;;;;3.33;1.17;;;;;;;31.37;29.00;101715.97;5164265;28;20688;-85
2022/09/05 11:56:32;;;;;;;3.58;1.60;;;;;;;31.37;28.82;101721.41;5151677;28;20398;-86
2022/09/05 11:59:21;;;;;;;2.55;1.15;;;;;;;31.34;27.61;101724.53;5166855;28;20438;-85
2022/09/05 12:02:14;;;;;;;14.93;2.42;;;;;;;31.30;28.09;101718.72;5173929;28;20478;-84
2022/09/05 12:05:10;;;;;;;2.72;1.13;;;;;;;31.20;29.09;101710.19;5168991;28;20654;-85
2022/09/05 12:07:56;;;;;;;2.90;1.30;;;;;;;31.17;28.88;101708.75;5153123;28;20045;-85
2022/09/05 12:10:46;;;;;;;9.27;1.63;;;;;;;31.31;28.33;101714.97;5165621;28;20070;-81
2022/09/05 12:13:47;;;;;;;5.43;1.27;;;;;;;31.29;28.11;101711.66;5152528;28;20165;-86
2022/09/05 12:16:26;;;;;;;4.05;1.35;;;;;;;31.53;28.00;101684.97;5168500;28;20396;-86
2022/09/05 12:19:25;;;;;;;6.45;1.42;;;;;;;31.72;28.33;101701.34;5165767;28;20081;-86
2022/09/05 12:22:26;;;;;;;4.10;1.30;;;;;;;31.66;28.22;101691.38;5167646;28;20512;-90
2022/09/05 12:25:35;;;;;;;10.10;1.65;;;;;;;31.75;27.86;101692.81;5165071;28;20118;-81
2022/09/05 12:28:16;;;;;;;3.55;1.40;;;;;;;31.75;26.86;101690.09;5166616;28;20608;-83
2022/09/05 12:30:49;;;;;;;3.70;1.30;;;;;;;31.59;27.13;101689.50;5169434;28;20516;-83
2022/09/05 12:33:27;;;;;;;7.05;1.60;;;;;;;31.53;27.28;101684.97;5164542;28;20018;-83
2022/09/05 12:36:04;;;;;;;3.85;1.17;;;;;;;31.63;27.86;101682.63;5165874;28;20035;-83
2022/09/05 12:39:00;;;;;;;2.75;1.30;;;;;;;31.83;27.77;101684.44;5167543;28;20019;-84
2022/09/05 12:41:52;;;;;;;2.42;1.50;;;;;;;31.91;27.70;101691.47;5167742;28;20050;-83
2022/09/05 12:44:49;;;;;;;5.07;1.30;;;;;;;31.71;26.98;101675.31;5167875;28;20031;-79
2022/09/05 12:47:22;;;;;;;4.55;1.20;;;;;;;31.77;26.37;101674.44;5159367;28;20066;-79
2022/09/05 12:50:05;;;;;;;4.65;1.35;;;;;;;31.73;26.64;101679.47;5172166;28;20114;-78
2022/09/05 12:52:42;;;;;;;2.78;1.35;;;;;;;31.86;26.97;101675.88;5165704;28;20584;-80
2022/09/05 12:55:23;;;;;;;3.95;1.58;;;;;;;31.83;27.19;101670.91;5167689;28;20518;-79
2022/09/05 12:58:00;;;;;;;3.35;1.15;;;;;;;31.82;26.92;101674.63;5164072;28;20728;-90